createdAt,value
2018-05-21T00:00:49.811Z,13.18
2018-05-21T00:01:55.654Z,13.24
2018-05-21T00:03:01.988Z,13.24
2018-05-21T00:04:08.822Z,13.28
2018-05-21T00:05:14.687Z,13.31
2018-05-21T00:06:21.508Z,13.33
2018-05-21T00:07:27.842Z,13.33
2018-05-21T00:08:33.696Z,13.29
2018-05-21T00:09:40.516Z,13.35
2018-05-21T00:10:46.877Z,13.43
2018-05-21T00:11:52.696Z,13.47
2018-05-21T00:12:59.052Z,13.48
2018-05-21T00:14:05.394Z,13.51
2018-05-21T00:15:11.751Z,13.49
2018-05-21T00:16:18.076Z,13.49
2018-05-21T00:17:24.916Z,13.49
2018-05-21T00:18:30.733Z,13.52
2018-05-21T00:19:37.080Z,13.54
2018-05-21T00:20:43.951Z,13.52
2018-05-21T00:21:50.245Z,13.58
2018-05-21T00:22:56.089Z,13.56
2018-05-21T00:24:02.434Z,13.62
2018-05-21T00:25:08.773Z,13.64
2018-05-21T00:26:15.141Z,13.66
2018-05-21T00:27:22.455Z,13.64
2018-05-21T00:28:27.797Z,13.69
2018-05-21T00:29:34.635Z,13.73
2018-05-21T00:30:40.587Z,13.77
2018-05-21T00:31:46.818Z,13.77
2018-05-21T00:32:53.744Z,13.70
2018-05-21T00:34:00.016Z,13.63
2018-05-21T00:35:06.372Z,13.60
2018-05-21T00:36:13.709Z,13.59
2018-05-21T00:37:19.035Z,13.57
2018-05-21T00:38:25.404Z,13.60
2018-05-21T00:39:31.242Z,13.59
2018-05-21T00:40:37.599Z,13.59
2018-05-21T00:41:44.411Z,13.56
2018-05-21T00:42:50.784Z,13.50
2018-05-21T00:43:57.096Z,13.53
2018-05-21T00:45:02.954Z,13.56
2018-05-21T00:46:09.819Z,13.56
2018-05-21T00:47:16.123Z,13.53
2018-05-21T00:48:21.980Z,13.56
2018-05-21T00:49:29.809Z,13.57
2018-05-21T00:50:34.669Z,13.60
2018-05-21T00:51:41.538Z,13.57
2018-05-21T00:52:47.348Z,13.52
2018-05-21T00:53:54.188Z,13.54
2018-05-21T00:55:00.541Z,13.58
2018-05-21T00:56:06.394Z,13.64
2018-05-21T00:57:12.711Z,13.57
2018-05-21T00:58:20.545Z,13.53
2018-05-21T00:59:25.394Z,13.53
2018-05-21T01:00:32.252Z,13.58
2018-05-21T01:01:38.635Z,13.60
2018-05-21T01:02:44.926Z,13.54
2018-05-21T01:03:50.779Z,13.45
2018-05-21T01:04:57.611Z,13.35
2018-05-21T01:06:03.968Z,13.33
2018-05-21T01:07:10.332Z,13.34
2018-05-21T01:08:16.135Z,13.33
2018-05-21T01:09:22.991Z,13.32
2018-05-21T01:10:29.382Z,13.27
2018-05-21T01:11:35.669Z,13.19
2018-05-21T01:12:41.991Z,13.14
2018-05-21T01:13:48.320Z,13.09
2018-05-21T01:14:54.195Z,13.11
2018-05-21T01:16:00.515Z,13.16
2018-05-21T01:17:06.878Z,13.19
2018-05-21T01:18:13.676Z,13.19
2018-05-21T01:19:19.520Z,13.06
2018-05-21T01:20:26.353Z,13.07
2018-05-21T01:21:32.737Z,13.11
2018-05-21T01:22:39.034Z,13.10
2018-05-21T01:23:44.872Z,13.12
2018-05-21T01:24:51.705Z,13.08
2018-05-21T01:25:57.556Z,13.03
2018-05-21T01:27:03.905Z,13.02
2018-05-21T01:28:10.232Z,12.98
2018-05-21T01:29:16.578Z,12.95
2018-05-21T01:30:23.416Z,12.90
2018-05-21T01:31:29.733Z,12.88
2018-05-21T01:32:35.585Z,12.78
2018-05-21T01:33:42.408Z,12.77
2018-05-21T01:34:48.752Z,12.80
2018-05-21T01:35:55.065Z,12.80
2018-05-21T01:37:00.929Z,12.78
2018-05-21T01:38:07.238Z,12.76
2018-05-21T01:39:13.580Z,12.74
2018-05-21T01:40:19.994Z,12.73
2018-05-21T01:41:26.734Z,12.80
2018-05-21T01:42:33.079Z,12.78
2018-05-21T01:43:39.392Z,12.78
2018-05-21T01:44:45.232Z,12.73
2018-05-21T01:45:51.549Z,12.76
2018-05-21T01:46:58.381Z,12.87
2018-05-21T01:48:04.737Z,12.96
2018-05-21T01:49:10.554Z,13.03
2018-05-21T01:50:17.380Z,13.10
2018-05-21T01:51:23.215Z,13.09
2018-05-21T01:52:30.059Z,13.07
2018-05-21T01:53:35.870Z,13.07
2018-05-21T01:54:42.193Z,13.01
2018-05-21T01:55:48.524Z,12.97
2018-05-21T01:56:55.861Z,12.93
2018-05-21T01:58:01.701Z,12.89
2018-05-21T01:59:07.514Z,12.93
2018-05-21T02:00:13.862Z,12.97
2018-05-21T02:01:20.186Z,12.97
2018-05-21T02:02:27.035Z,12.82
2018-05-21T02:03:33.379Z,12.74
2018-05-21T02:04:39.183Z,12.69
2018-05-21T02:05:46.021Z,12.66
2018-05-21T02:06:52.313Z,12.62
2018-05-21T02:07:58.663Z,12.68
2018-05-21T02:09:05.000Z,12.72
2018-05-21T02:10:10.827Z,12.73
2018-05-21T02:11:17.635Z,12.67
2018-05-21T02:12:23.966Z,12.75
2018-05-21T02:13:29.810Z,12.89
2018-05-21T02:14:36.120Z,13.00
2018-05-21T02:15:42.452Z,13.05
2018-05-21T02:16:49.273Z,13.03
2018-05-21T02:17:55.121Z,13.00
2018-05-21T02:19:01.432Z,12.90
2018-05-21T02:20:08.272Z,12.78
2018-05-21T02:21:14.583Z,12.77
2018-05-21T02:22:20.415Z,12.73
2018-05-21T02:23:26.755Z,12.71
2018-05-21T02:24:33.060Z,12.63
2018-05-21T02:25:39.884Z,12.55
2018-05-21T02:26:46.203Z,12.48
2018-05-21T02:27:52.536Z,12.52
2018-05-21T02:28:58.376Z,12.53
2018-05-21T02:30:04.668Z,12.50
2018-05-21T02:31:10.993Z,12.47
2018-05-21T02:32:17.329Z,12.45
2018-05-21T02:33:24.159Z,12.44
2018-05-21T02:34:29.965Z,12.46
2018-05-21T02:35:36.300Z,12.43
2018-05-21T02:36:43.113Z,12.40
2018-05-21T02:37:49.433Z,12.34
2018-05-21T02:38:55.293Z,12.34
2018-05-21T02:40:02.065Z,12.35
2018-05-21T02:41:08.384Z,12.33
2018-05-21T02:42:14.756Z,12.36
2018-05-21T02:43:20.544Z,12.38
2018-05-21T02:44:26.848Z,12.38
2018-05-21T02:45:33.166Z,12.42
2018-05-21T02:46:39.477Z,12.48
2018-05-21T02:47:45.813Z,12.50
2018-05-21T02:48:52.626Z,12.50
2018-05-21T02:49:58.957Z,12.50
2018-05-21T02:51:05.255Z,12.54
2018-05-21T02:52:11.062Z,12.53
2018-05-21T02:53:17.889Z,12.47
2018-05-21T02:54:24.213Z,12.48
2018-05-21T02:55:30.030Z,12.56
2018-05-21T02:56:36.830Z,12.62
2018-05-21T02:57:43.146Z,12.63
2018-05-21T02:58:49.500Z,12.57
2018-05-21T02:59:55.392Z,12.53
2018-05-21T03:01:02.101Z,12.47
2018-05-21T03:02:08.909Z,12.51
2018-05-21T03:03:14.232Z,12.50
2018-05-21T03:04:21.078Z,12.54
2018-05-21T03:05:27.392Z,12.56
2018-05-21T03:06:33.176Z,12.55
2018-05-21T03:07:39.483Z,12.54
2018-05-21T03:08:45.827Z,12.58
2018-05-21T03:09:52.122Z,12.54
2018-05-21T03:10:58.946Z,12.52
2018-05-21T03:12:05.239Z,12.53
2018-05-21T03:13:11.059Z,12.51
2018-05-21T03:14:17.399Z,12.56
2018-05-21T03:15:23.693Z,12.50
2018-05-21T03:16:30.515Z,12.49
2018-05-21T03:17:36.842Z,12.55
2018-05-21T03:18:43.162Z,12.56
2018-05-21T03:19:49.001Z,12.51
2018-05-21T03:20:55.387Z,12.42
2018-05-21T03:22:01.603Z,12.37
2018-05-21T03:23:07.911Z,12.31
2018-05-21T03:24:14.744Z,12.25
2018-05-21T03:25:21.036Z,12.21
2018-05-21T03:26:27.381Z,12.20
2018-05-21T03:27:33.161Z,12.19
2018-05-21T03:28:39.966Z,12.23
2018-05-21T03:29:45.812Z,12.23
2018-05-21T03:30:52.111Z,12.20
2018-05-21T03:31:58.935Z,12.21
2018-05-21T03:33:05.225Z,12.19
2018-05-21T03:34:11.048Z,12.09
2018-05-21T03:35:17.901Z,12.07
2018-05-21T03:36:23.670Z,12.14
2018-05-21T03:37:30.487Z,12.19
2018-05-21T03:38:36.311Z,12.24
2018-05-21T03:39:42.639Z,12.25
2018-05-21T03:40:49.411Z,12.26
2018-05-21T03:41:55.247Z,12.27
2018-05-21T03:43:02.044Z,12.32
2018-05-21T03:44:08.356Z,12.33
2018-05-21T03:45:14.695Z,12.32
2018-05-21T03:46:21.001Z,12.35
2018-05-21T03:47:27.396Z,12.33
2018-05-21T03:48:33.628Z,12.34
2018-05-21T03:49:39.495Z,12.39
2018-05-21T03:50:45.775Z,12.41
2018-05-21T03:51:52.086Z,12.43
2018-05-21T03:52:58.897Z,12.44
2018-05-21T03:54:05.246Z,12.50
2018-05-21T03:55:11.075Z,12.55
2018-05-21T03:56:17.869Z,12.60
2018-05-21T03:57:23.706Z,12.65
2018-05-21T03:58:30.035Z,12.75
2018-05-21T03:59:36.866Z,12.84
2018-05-21T04:00:43.209Z,12.89
2018-05-21T04:01:49.532Z,12.97
2018-05-21T04:02:55.339Z,13.03
2018-05-21T04:04:02.176Z,13.08
2018-05-21T04:05:08.527Z,13.12
2018-05-21T04:06:14.841Z,13.11
2018-05-21T04:07:20.659Z,13.09
2018-05-21T04:08:27.490Z,13.08
2018-05-21T04:09:33.327Z,13.10
2018-05-21T04:10:40.188Z,13.06
2018-05-21T04:11:46.492Z,13.03
2018-05-21T04:12:52.327Z,13.06
2018-05-21T04:13:59.168Z,13.04
2018-05-21T04:15:05.517Z,13.04
2018-05-21T04:16:11.350Z,13.08
2018-05-21T04:17:18.172Z,13.08
2018-05-21T04:18:24.509Z,13.06
2018-05-21T04:19:30.353Z,13.08
2018-05-21T04:20:37.206Z,13.14
2018-05-21T04:21:43.516Z,13.16
2018-05-21T04:22:49.376Z,13.18
2018-05-21T04:23:56.213Z,13.17
2018-05-21T04:25:02.545Z,13.14
2018-05-21T04:26:08.917Z,13.11
2018-05-21T04:27:15.234Z,13.08
2018-05-21T04:28:21.084Z,13.08
2018-05-21T04:29:27.417Z,13.07
2018-05-21T04:30:34.258Z,13.07
2018-05-21T04:31:40.627Z,13.03
2018-05-21T04:32:46.466Z,12.99
2018-05-21T04:33:52.783Z,13.01
2018-05-21T04:34:59.133Z,13.08
2018-05-21T04:36:05.994Z,13.15
2018-05-21T04:37:12.309Z,13.21
2018-05-21T04:38:18.154Z,13.21
2018-05-21T04:39:24.499Z,13.22
2018-05-21T04:40:31.428Z,13.23
2018-05-21T04:41:37.211Z,13.27
2018-05-21T04:42:43.536Z,13.25
2018-05-21T04:43:50.373Z,13.25
2018-05-21T04:44:56.729Z,13.26
2018-05-21T04:46:03.091Z,13.27
2018-05-21T04:47:08.931Z,13.28
2018-05-21T04:48:15.398Z,13.31
2018-05-21T04:49:22.105Z,13.36
2018-05-21T04:50:28.462Z,13.37
2018-05-21T04:51:34.336Z,13.44
2018-05-21T04:52:40.680Z,13.47
2018-05-21T04:53:47.496Z,13.49
2018-05-21T04:54:54.847Z,13.50
2018-05-21T04:56:00.712Z,13.50
2018-05-21T04:57:06.593Z,13.52
2018-05-21T04:58:12.423Z,13.53
2018-05-21T04:59:19.267Z,13.56
2018-05-21T05:00:25.130Z,13.59
2018-05-21T05:01:31.978Z,13.62
2018-05-21T05:02:38.321Z,13.61
2018-05-21T05:03:45.159Z,13.64
2018-05-21T05:04:50.529Z,13.63
2018-05-21T05:05:57.382Z,13.62
2018-05-21T05:07:03.765Z,13.62
2018-05-21T05:08:10.097Z,13.64
2018-05-21T05:09:16.453Z,13.61
2018-05-21T05:10:22.800Z,13.58
2018-05-21T05:11:29.150Z,13.56
2018-05-21T05:12:35.049Z,13.54
2018-05-21T05:13:41.369Z,13.53
2018-05-21T05:14:47.740Z,13.51
2018-05-21T05:15:54.080Z,13.50
2018-05-21T05:17:00.972Z,13.50
2018-05-21T05:18:06.788Z,13.52
2018-05-21T05:19:13.143Z,13.53
2018-05-21T05:20:19.987Z,13.54
2018-05-21T05:21:26.339Z,13.57
2018-05-21T05:22:32.224Z,13.61
2018-05-21T05:23:38.555Z,13.63
2018-05-21T05:24:45.434Z,13.66
2018-05-21T05:25:51.271Z,13.72
2018-05-21T05:26:58.153Z,13.78
2018-05-21T05:28:04.457Z,13.83
2018-05-21T05:29:10.340Z,13.88
2018-05-21T05:30:16.679Z,13.94
2018-05-21T05:31:23.043Z,14.03
2018-05-21T05:32:29.928Z,14.09
2018-05-21T05:33:35.755Z,14.14
2018-05-21T05:34:42.592Z,14.18
2018-05-21T05:35:48.957Z,14.24
2018-05-21T05:36:54.850Z,14.26
2018-05-21T05:38:01.694Z,14.30
2018-05-21T05:39:08.048Z,14.35
2018-05-21T05:40:13.904Z,14.39
2018-05-21T05:41:20.314Z,14.46
2018-05-21T05:42:27.154Z,14.50
2018-05-21T05:43:33.522Z,14.54
2018-05-21T05:44:39.389Z,14.57
2018-05-21T05:45:45.781Z,14.61
2018-05-21T05:46:52.133Z,14.64
2018-05-21T05:47:59.029Z,14.68
2018-05-21T05:49:05.433Z,14.72
2018-05-21T05:50:11.245Z,14.69
2018-05-21T05:51:17.630Z,14.66
2018-05-21T05:52:24.036Z,14.69
2018-05-21T05:53:30.394Z,14.74
2018-05-21T05:54:36.802Z,14.78
2018-05-21T05:55:43.138Z,14.83
2018-05-21T05:56:50.035Z,14.88
2018-05-21T05:57:55.921Z,14.94
2018-05-21T05:59:02.290Z,14.99
2018-05-21T06:00:08.679Z,15.02
2018-05-21T06:01:15.550Z,15.05
2018-05-21T06:02:21.944Z,15.08
2018-05-21T06:03:27.953Z,15.16
2018-05-21T06:04:35.695Z,15.23
2018-05-21T06:05:40.592Z,15.32
2018-05-21T06:06:46.976Z,15.39
2018-05-21T06:07:53.879Z,15.47
2018-05-21T06:09:00.299Z,15.51
2018-05-21T06:10:06.175Z,15.56
2018-05-21T06:11:12.557Z,15.61
2018-05-21T06:12:19.426Z,15.65
2018-05-21T06:13:25.853Z,15.70
2018-05-21T06:14:31.737Z,15.76
2018-05-21T06:15:38.133Z,15.81
2018-05-21T06:16:45.025Z,15.84
2018-05-21T06:17:50.915Z,15.84
2018-05-21T06:18:57.854Z,15.89
2018-05-21T06:20:03.738Z,15.95
2018-05-21T06:21:10.132Z,16.00
2018-05-21T06:22:17.038Z,16.08
2018-05-21T06:23:23.454Z,16.14
2018-05-21T06:24:29.856Z,16.18
2018-05-21T06:25:36.275Z,16.22
2018-05-21T06:26:42.671Z,16.28
2018-05-21T06:27:49.108Z,16.33
2018-05-21T06:28:55.544Z,16.37
2018-05-21T06:30:01.939Z,16.39
2018-05-21T06:31:09.441Z,16.42
2018-05-21T06:32:14.768Z,16.49
2018-05-21T06:33:21.204Z,16.53
2018-05-21T06:34:27.198Z,16.59
2018-05-21T06:35:34.054Z,16.64
2018-05-21T06:36:40.516Z,16.65
2018-05-21T06:37:46.423Z,16.73
2018-05-21T06:38:52.885Z,16.77
2018-05-21T06:39:59.438Z,16.88
2018-05-21T06:41:06.301Z,16.97
2018-05-21T06:42:12.177Z,17.06
2018-05-21T06:43:19.119Z,17.15
2018-05-21T06:44:25.621Z,17.21
2018-05-21T06:45:31.510Z,17.24
2018-05-21T06:46:38.532Z,17.31
2018-05-21T06:47:45.017Z,17.36
2018-05-21T06:48:51.446Z,17.42
2018-05-21T06:49:57.913Z,17.53
2018-05-21T06:51:04.182Z,17.64
2018-05-21T06:52:10.775Z,17.71
2018-05-21T06:53:16.734Z,17.76
2018-05-21T06:54:23.229Z,17.80
2018-05-21T06:55:30.165Z,17.87
2018-05-21T06:56:36.637Z,17.91
2018-05-21T06:57:42.605Z,17.91
2018-05-21T06:58:49.587Z,17.98
2018-05-21T06:59:55.626Z,18.04
2018-05-21T07:01:02.043Z,18.04
2018-05-21T07:02:08.572Z,18.01
2018-05-21T07:03:15.508Z,17.98
2018-05-21T07:04:21.555Z,18.01
2018-05-21T07:05:29.459Z,18.07
2018-05-21T07:06:34.956Z,18.13
2018-05-21T07:07:41.449Z,18.22
2018-05-21T07:08:47.464Z,18.27
2018-05-21T07:09:54.557Z,18.31
2018-05-21T07:11:01.911Z,18.31
2018-05-21T07:12:07.482Z,18.31
2018-05-21T07:13:13.954Z,18.36
2018-05-21T07:14:20.415Z,18.48
2018-05-21T07:15:26.453Z,18.55
2018-05-21T07:16:32.934Z,18.69
2018-05-21T07:17:39.919Z,18.79
2018-05-21T07:18:46.412Z,18.87
2018-05-21T07:19:52.468Z,18.92
2018-05-21T07:20:59.460Z,18.95
2018-05-21T07:22:05.455Z,19.03
2018-05-21T07:23:11.984Z,19.35
2018-05-21T07:24:19.012Z,20.33
2018-05-21T07:25:25.008Z,21.20
2018-05-21T07:26:31.517Z,21.63
2018-05-21T07:27:38.051Z,21.81
2018-05-21T07:28:45.055Z,21.61
2018-05-21T07:29:51.126Z,21.28
2018-05-21T07:30:57.620Z,20.99
2018-05-21T07:32:04.145Z,20.73
2018-05-21T07:33:11.151Z,20.59
2018-05-21T07:34:17.308Z,20.53
2018-05-21T07:35:23.925Z,20.53
2018-05-21T07:36:30.371Z,20.46
2018-05-21T07:37:37.639Z,20.57
2018-05-21T07:38:43.995Z,20.66
2018-05-21T07:39:49.896Z,20.71
2018-05-21T07:40:56.926Z,20.68
2018-05-21T07:42:02.978Z,20.68
2018-05-21T07:43:10.021Z,20.66
2018-05-21T07:44:16.075Z,20.57
2018-05-21T07:45:23.155Z,20.57
2018-05-21T07:46:29.681Z,20.63
2018-05-21T07:47:36.240Z,20.68
2018-05-21T07:48:42.292Z,20.73
2018-05-21T07:49:49.430Z,20.71
2018-05-21T07:50:55.425Z,20.77
2018-05-21T07:52:02.446Z,20.73
2018-05-21T07:53:08.527Z,20.75
2018-05-21T07:54:15.567Z,20.80
2018-05-21T07:55:22.152Z,20.81
2018-05-21T07:56:28.224Z,20.89
2018-05-21T07:57:35.449Z,20.94
2018-05-21T07:58:41.337Z,21.11
2018-05-21T07:59:48.407Z,21.30
2018-05-21T08:00:55.006Z,21.44
2018-05-21T08:02:01.563Z,21.60
2018-05-21T08:03:07.651Z,21.81
2018-05-21T08:04:14.241Z,22.02
2018-05-21T08:05:20.940Z,22.11
2018-05-21T08:06:27.898Z,22.15
2018-05-21T08:07:34.014Z,22.28
2018-05-21T08:08:42.107Z,22.44
2018-05-21T08:09:47.703Z,22.44
2018-05-21T08:10:54.345Z,22.56
2018-05-21T08:12:00.462Z,22.63
2018-05-21T08:13:07.075Z,22.53
2018-05-21T08:14:13.665Z,22.64
2018-05-21T08:15:20.322Z,22.76
2018-05-21T08:16:26.968Z,22.86
2018-05-21T08:17:33.565Z,23.00
2018-05-21T08:18:40.687Z,23.05
2018-05-21T08:19:46.844Z,23.14
2018-05-21T08:20:53.501Z,23.05
2018-05-21T08:22:00.653Z,23.12
2018-05-21T08:23:07.419Z,23.12
2018-05-21T08:24:13.435Z,23.10
2018-05-21T08:25:20.576Z,23.21
2018-05-21T08:26:26.794Z,23.30
2018-05-21T08:27:33.420Z,23.39
2018-05-21T08:28:40.585Z,23.46
2018-05-21T08:29:46.794Z,23.43
2018-05-21T08:30:53.454Z,23.53
2018-05-21T08:32:00.132Z,23.60
2018-05-21T08:33:07.389Z,23.68
2018-05-21T08:34:13.972Z,23.77
2018-05-21T08:35:20.174Z,23.63
2018-05-21T08:36:26.871Z,23.69
2018-05-21T08:37:34.038Z,23.75
2018-05-21T08:38:40.227Z,23.91
2018-05-21T08:39:47.423Z,24.09
2018-05-21T08:40:53.645Z,24.17
2018-05-21T08:42:00.896Z,24.11
2018-05-21T08:43:07.550Z,24.04
2018-05-21T08:44:14.256Z,23.91
2018-05-21T08:45:20.569Z,23.99
2018-05-21T08:46:27.659Z,24.00
2018-05-21T08:47:34.382Z,24.04
2018-05-21T08:48:40.589Z,24.01
2018-05-21T08:49:47.784Z,23.98
2018-05-21T08:50:53.983Z,23.93
2018-05-21T08:52:00.713Z,23.94
2018-05-21T08:53:07.888Z,23.87
2018-05-21T08:54:14.116Z,24.04
2018-05-21T08:55:20.813Z,24.09
2018-05-21T08:56:27.537Z,24.03
2018-05-21T08:57:34.261Z,24.11
2018-05-21T08:58:41.525Z,24.24
2018-05-21T08:59:48.198Z,24.27
2018-05-21T09:00:54.847Z,24.30
2018-05-21T09:02:01.092Z,24.41
2018-05-21T09:03:07.765Z,24.34
2018-05-21T09:04:14.483Z,24.40
2018-05-21T09:05:21.685Z,24.46
2018-05-21T09:06:27.915Z,24.43
2018-05-21T09:07:34.637Z,24.57
2018-05-21T09:08:41.831Z,24.62
2018-05-21T09:09:48.549Z,24.71
2018-05-21T09:10:54.764Z,24.66
2018-05-21T09:12:01.496Z,24.76
2018-05-21T09:13:08.721Z,24.79
2018-05-21T09:14:14.902Z,24.92
2018-05-21T09:15:22.119Z,25.02
2018-05-21T09:16:28.845Z,25.10
2018-05-21T09:17:35.576Z,25.09
2018-05-21T09:18:41.780Z,25.15
2018-05-21T09:19:48.516Z,25.07
2018-05-21T09:20:55.224Z,24.80
2018-05-21T09:22:01.930Z,24.68
2018-05-21T09:23:09.184Z,24.68
2018-05-21T09:24:15.382Z,24.65
2018-05-21T09:25:22.601Z,24.57
2018-05-21T09:26:28.823Z,24.57
2018-05-21T09:27:36.038Z,24.52
2018-05-21T09:28:42.774Z,24.48
2018-05-21T09:29:49.468Z,24.49
2018-05-21T09:30:56.195Z,24.56
2018-05-21T09:32:02.414Z,24.47
2018-05-21T09:33:09.667Z,24.38
2018-05-21T09:34:16.349Z,24.22
2018-05-21T09:35:23.071Z,24.20
2018-05-21T09:36:29.793Z,24.18
2018-05-21T09:37:36.516Z,24.17
2018-05-21T09:38:43.233Z,24.11
2018-05-21T09:39:49.929Z,24.02
2018-05-21T09:40:56.637Z,23.96
2018-05-21T09:42:03.425Z,23.90
2018-05-21T09:43:10.096Z,23.96
2018-05-21T09:44:16.285Z,23.95
2018-05-21T09:45:22.990Z,23.98
2018-05-21T09:46:30.215Z,24.06
2018-05-21T09:47:36.916Z,23.88
2018-05-21T09:48:43.688Z,23.78
2018-05-21T09:49:50.341Z,23.83
2018-05-21T09:50:58.213Z,23.83
2018-05-21T09:52:03.756Z,23.86
2018-05-21T09:53:10.485Z,23.89
2018-05-21T09:54:17.171Z,23.93
2018-05-21T09:55:23.873Z,23.87
2018-05-21T09:56:30.593Z,23.89
2018-05-21T09:57:37.396Z,23.96
2018-05-21T09:58:44.032Z,24.06
2018-05-21T09:59:50.721Z,24.09
2018-05-21T10:00:57.423Z,24.03
2018-05-21T10:02:04.133Z,24.06
2018-05-21T10:03:10.872Z,24.05
2018-05-21T10:04:17.069Z,23.95
2018-05-21T10:05:23.762Z,23.93
2018-05-21T10:06:30.972Z,24.00
2018-05-21T10:07:37.675Z,24.02
2018-05-21T10:08:43.909Z,24.06
2018-05-21T10:09:51.101Z,24.17
2018-05-21T10:10:57.806Z,24.21
2018-05-21T10:12:04.597Z,24.23
2018-05-21T10:13:11.237Z,24.24
2018-05-21T10:14:17.430Z,24.26
2018-05-21T10:15:24.624Z,24.24
2018-05-21T10:16:31.390Z,24.26
2018-05-21T10:17:38.045Z,24.34
2018-05-21T10:18:44.775Z,24.46
2018-05-21T10:19:51.495Z,24.52
2018-05-21T10:20:58.181Z,24.59
2018-05-21T10:22:04.913Z,24.68
2018-05-21T10:23:11.639Z,24.72
2018-05-21T10:24:18.332Z,24.70
2018-05-21T10:25:25.066Z,24.73
2018-05-21T10:26:31.776Z,24.76
2018-05-21T10:27:38.496Z,24.84
2018-05-21T10:28:44.752Z,24.91
2018-05-21T10:29:51.969Z,24.92
2018-05-21T10:30:58.680Z,24.95
2018-05-21T10:32:06.413Z,24.96
2018-05-21T10:33:12.167Z,25.02
2018-05-21T10:34:19.401Z,25.05
2018-05-21T10:35:25.689Z,25.13
2018-05-21T10:36:32.390Z,25.06
2018-05-21T10:37:39.129Z,24.94
2018-05-21T10:38:45.907Z,24.70
2018-05-21T10:39:52.645Z,24.55
2018-05-21T10:40:58.910Z,24.50
2018-05-21T10:42:06.159Z,24.62
2018-05-21T10:43:12.948Z,24.73
2018-05-21T10:44:19.688Z,24.84
2018-05-21T10:45:26.527Z,25.00
2018-05-21T10:46:33.238Z,25.21
2018-05-21T10:47:40.016Z,25.28
2018-05-21T10:48:46.832Z,25.33
2018-05-21T10:49:53.410Z,25.51
2018-05-21T10:51:00.383Z,25.55
2018-05-21T10:52:07.168Z,25.55
2018-05-21T10:53:13.975Z,25.59
2018-05-21T10:54:20.752Z,25.59
2018-05-21T10:55:27.539Z,25.49
2018-05-21T10:56:34.339Z,25.27
2018-05-21T10:57:41.254Z,25.26
2018-05-21T10:58:47.941Z,25.15
2018-05-21T10:59:54.704Z,25.10
2018-05-21T11:01:01.501Z,25.10
2018-05-21T11:02:07.806Z,25.18
2018-05-21T11:03:15.132Z,25.15
2018-05-21T11:04:21.960Z,25.15
2018-05-21T11:05:28.866Z,25.11
2018-05-21T11:06:35.829Z,25.17
2018-05-21T11:07:42.837Z,25.30
2018-05-21T11:08:49.937Z,25.34
2018-05-21T11:09:56.549Z,25.52
2018-05-21T11:11:04.224Z,25.68
2018-05-21T11:12:11.507Z,25.83
2018-05-21T11:13:18.746Z,25.85
2018-05-21T11:14:26.041Z,26.02
2018-05-21T11:15:33.421Z,26.15
2018-05-21T11:16:40.817Z,26.22
2018-05-21T11:17:48.242Z,26.33
2018-05-21T11:18:55.737Z,26.31
2018-05-21T11:20:02.710Z,26.19
2018-05-21T11:21:10.719Z,26.12
2018-05-21T11:22:19.258Z,26.01
2018-05-21T11:23:25.855Z,26.08
2018-05-21T11:24:33.447Z,26.21
2018-05-21T11:25:40.555Z,26.36
2018-05-21T11:26:48.678Z,26.37
2018-05-21T11:27:56.330Z,26.29
2018-05-21T11:29:04.007Z,26.20
2018-05-21T11:30:11.666Z,26.09
2018-05-21T11:31:19.391Z,26.09
2018-05-21T11:32:27.044Z,26.20
2018-05-21T11:33:34.801Z,26.37
2018-05-21T11:34:42.497Z,26.47
2018-05-21T11:35:50.746Z,26.59
2018-05-21T11:36:58.006Z,26.64
2018-05-21T11:38:05.782Z,26.42
2018-05-21T11:39:13.572Z,26.16
2018-05-21T11:40:20.851Z,26.18
2018-05-21T11:41:28.646Z,26.09
2018-05-21T11:42:36.944Z,26.20
2018-05-21T11:43:44.808Z,26.27
2018-05-21T11:44:52.602Z,26.41
2018-05-21T11:46:00.458Z,26.51
2018-05-21T11:47:08.300Z,26.54
2018-05-21T11:48:16.171Z,26.64
2018-05-21T11:49:24.069Z,26.73
2018-05-21T11:50:31.953Z,26.81
2018-05-21T11:51:39.872Z,27.00
2018-05-21T11:52:47.430Z,27.18
2018-05-21T11:53:55.779Z,27.48
2018-05-21T11:55:04.625Z,27.57
2018-05-21T11:56:11.440Z,27.67
2018-05-21T11:57:19.266Z,27.78
2018-05-21T11:58:26.591Z,27.80
2018-05-21T11:59:34.837Z,27.84
2018-05-21T12:00:42.606Z,27.76
2018-05-21T12:01:50.391Z,27.74
2018-05-21T12:02:57.721Z,27.68
2018-05-21T12:04:05.575Z,27.59
2018-05-21T12:05:13.898Z,27.70
2018-05-21T12:06:21.744Z,27.79
2018-05-21T12:07:29.610Z,27.74
2018-05-21T12:08:37.439Z,27.76
2018-05-21T12:09:45.255Z,27.67
2018-05-21T12:10:52.614Z,27.71
2018-05-21T12:12:00.497Z,27.78
2018-05-21T12:13:08.910Z,27.97
2018-05-21T12:14:16.352Z,28.08
2018-05-21T12:15:24.751Z,28.26
2018-05-21T12:16:32.204Z,28.31
2018-05-21T12:17:40.159Z,28.44
2018-05-21T12:18:48.155Z,28.60
2018-05-21T12:19:56.625Z,28.76
2018-05-21T12:21:04.721Z,29.22
2018-05-21T12:22:12.684Z,29.37
2018-05-21T12:23:20.237Z,29.51
2018-05-21T12:24:28.848Z,29.42
2018-05-21T12:25:36.875Z,29.13
2018-05-21T12:26:44.465Z,29.06
2018-05-21T12:27:53.005Z,28.99
2018-05-21T12:29:00.603Z,28.83
2018-05-21T12:30:08.645Z,28.77
2018-05-21T12:31:17.189Z,28.67
2018-05-21T12:32:25.213Z,28.33
2018-05-21T12:33:33.787Z,28.26
2018-05-21T12:34:41.393Z,28.32
2018-05-21T12:35:50.359Z,28.33
2018-05-21T12:36:56.904Z,28.54
2018-05-21T12:38:04.963Z,28.75
2018-05-21T12:39:13.013Z,29.05
2018-05-21T12:40:21.559Z,29.40
2018-05-21T12:41:29.622Z,29.49
2018-05-21T12:42:37.668Z,29.45
2018-05-21T12:43:45.672Z,29.41
2018-05-21T12:44:53.600Z,29.16
2018-05-21T12:46:01.069Z,28.99
2018-05-21T12:47:09.071Z,28.94
2018-05-21T12:48:17.061Z,28.90
2018-05-21T12:49:25.585Z,29.01
2018-05-21T12:50:33.083Z,29.00
2018-05-21T12:51:41.599Z,28.91
2018-05-21T12:52:49.640Z,28.85
2018-05-21T12:53:57.702Z,28.89
2018-05-21T12:55:05.244Z,28.97
2018-05-21T12:56:13.784Z,29.02
2018-05-21T12:57:21.359Z,28.90
2018-05-21T12:58:29.436Z,28.99
2018-05-21T12:59:38.033Z,29.33
2018-05-21T13:00:46.102Z,29.50
2018-05-21T13:01:54.168Z,29.39
2018-05-21T13:03:02.171Z,29.45
2018-05-21T13:04:10.206Z,29.48
2018-05-21T13:05:17.785Z,29.57
2018-05-21T13:06:26.255Z,29.57
2018-05-21T13:07:33.805Z,29.45
2018-05-21T13:08:41.858Z,29.31
2018-05-21T13:09:50.373Z,29.15
2018-05-21T13:10:58.441Z,29.10
2018-05-21T13:12:06.492Z,29.18
2018-05-21T13:13:14.076Z,29.45
2018-05-21T13:14:22.675Z,29.74
2018-05-21T13:15:30.252Z,30.05
2018-05-21T13:16:38.837Z,30.38
2018-05-21T13:17:46.902Z,30.28
2018-05-21T13:18:54.450Z,29.96
2018-05-21T13:20:02.862Z,29.79
2018-05-21T13:21:10.750Z,29.56
2018-05-21T13:22:18.572Z,29.33
2018-05-21T13:23:26.336Z,29.02
2018-05-21T13:24:34.051Z,28.78
2018-05-21T13:25:41.679Z,28.46
2018-05-21T13:26:48.783Z,28.47
2018-05-21T13:27:56.337Z,28.46
2018-05-21T13:29:03.920Z,28.66
2018-05-21T13:30:11.984Z,28.96
2018-05-21T13:31:19.077Z,29.13
2018-05-21T13:32:27.199Z,29.27
2018-05-21T13:33:34.810Z,29.31
2018-05-21T13:34:42.496Z,29.25
2018-05-21T13:35:50.045Z,29.41
2018-05-21T13:36:57.696Z,29.41
2018-05-21T13:38:04.823Z,29.29
2018-05-21T13:39:12.959Z,29.29
2018-05-21T13:40:20.558Z,29.27
2018-05-21T13:41:27.725Z,29.51
2018-05-21T13:42:35.923Z,29.77
2018-05-21T13:43:43.637Z,30.11
2018-05-21T13:44:51.428Z,30.38
2018-05-21T13:45:58.721Z,30.46
2018-05-21T13:47:07.024Z,30.56
2018-05-21T13:48:14.833Z,30.32
2018-05-21T13:49:22.621Z,29.81
2018-05-21T13:50:30.375Z,29.55
2018-05-21T13:51:37.654Z,29.57
2018-05-21T13:52:45.925Z,29.53
2018-05-21T13:53:53.742Z,29.69
2018-05-21T13:55:01.505Z,29.63
2018-05-21T13:56:09.264Z,29.65
2018-05-21T13:57:17.557Z,29.77
2018-05-21T13:58:24.346Z,30.02
2018-05-21T13:59:32.162Z,30.33
2018-05-21T14:00:40.454Z,30.63
2018-05-21T14:01:47.759Z,30.75
2018-05-21T14:02:56.051Z,30.53
2018-05-21T14:04:03.361Z,30.53
2018-05-21T14:05:11.068Z,30.49
2018-05-21T14:06:19.272Z,30.36
2018-05-21T14:07:26.942Z,30.08
2018-05-21T14:08:34.073Z,29.76
2018-05-21T14:09:42.268Z,29.52
2018-05-21T14:10:49.765Z,29.32
2018-05-21T14:11:57.391Z,29.13
2018-05-21T14:13:04.851Z,29.00
2018-05-21T14:14:12.403Z,28.72
2018-05-21T14:15:19.902Z,28.74
2018-05-21T14:16:26.939Z,28.76
2018-05-21T14:17:34.438Z,28.79
2018-05-21T14:18:41.942Z,28.91
2018-05-21T14:19:49.952Z,28.97